Time;durP1;ratioP1;P1;durP2;ratioP2;P2;SDS_P1;SDS_P2;PMS_P1;PMS_P2;Temp;Humidity;BMP_temperature;BMP_pressure;BME280_temperature;BME280_humidity;BME280_pressure;Samples;Min_cycle;Max_cycle;Signal;HPM_P1;HPM_P2
2023/08/10 00:02:10;;;;;;;3.38;3.08;;;;;12.20;94535.00;;;;7392892;19;20169;-76
2023/08/10 00:04:38;;;;;;;5.15;3.00;;;;;12.30;94536.00;;;;7387706;19;20172;-78
2023/08/10 00:07:12;;;;;;;5.03;3.13;;;;;12.10;94530.00;;;;7393980;19;20137;-78
2023/08/10 00:09:40;;;;;;;9.15;2.92;;;;;12.00;94536.00;;;;7394137;19;20148;-78
2023/08/10 00:12:14;;;;;;;4.43;2.60;;;;;12.00;94534.00;;;;7395542;19;20357;-78
2023/08/10 00:14:42;;;;;;;3.83;2.72;;;;;12.00;94531.00;;;;7392587;19;20168;-78
2023/08/10 00:17:16;;;;;;;3.33;2.63;;;;;11.80;94540.00;;;;7393448;19;20219;-77
2023/08/10 00:19:44;;;;;;;6.25;3.00;;;;;11.70;94536.00;;;;7394917;19;20991;-76
2023/08/10 00:22:19;;;;;;;4.82;3.22;;;;;11.80;94540.00;;;;7398168;19;20529;-78
2023/08/10 00:24:47;;;;;;;6.40;2.90;;;;;11.80;94537.00;;;;7401459;19;20133;-77
2023/08/10 00:27:23;;;;;;;3.58;2.60;;;;;11.60;94535.00;;;;7391761;19;20143;-77
2023/08/10 00:29:51;;;;;;;3.05;2.78;;;;;11.50;94538.00;;;;7398744;19;21251;-78
2023/08/10 00:32:25;;;;;;;4.32;3.05;;;;;11.50;94538.00;;;;7402413;19;20496;-77
2023/08/10 00:34:53;;;;;;;6.45;3.03;;;;;11.50;94539.00;;;;7402224;19;20141;-78
2023/08/10 00:37:27;;;;;;;3.15;2.58;;;;;11.30;94543.00;;;;7400428;19;20135;-78
2023/08/10 00:39:55;;;;;;;4.45;3.10;;;;;11.30;94541.00;;;;7402531;19;20151;-78
2023/08/10 00:42:29;;;;;;;4.43;3.05;;;;;11.20;94537.00;;;;7401826;19;20643;-78
2023/08/10 00:44:57;;;;;;;3.90;3.50;;;;;11.40;94537.00;;;;7395305;19;20159;-77
2023/08/10 00:47:31;;;;;;;5.53;3.30;;;;;11.40;94541.00;;;;7404069;19;20135;-77
2023/08/10 00:50:01;;;;;;;3.42;2.97;;;;;11.30;94543.00;;;;7400866;19;20148;-78
2023/08/10 00:52:36;;;;;;;3.87;3.10;;;;;11.20;94534.00;;;;7398700;19;20137;-77
2023/08/10 00:55:05;;;;;;;5.80;3.50;;;;;11.20;94534.00;;;;7401491;19;20137;-76
2023/08/10 00:57:39;;;;;;;4.82;3.33;;;;;11.10;94538.00;;;;7399150;19;20207;-77
2023/08/10 01:00:10;;;;;;;4.45;3.60;;;;;11.20;94534.00;;;;7399753;19;20156;-78
2023/08/10 01:02:44;;;;;;;6.97;3.50;;;;;11.30;94533.00;;;;7399006;19;20216;-75
2023/08/10 01:05:19;;;;;;;4.68;3.38;;;;;11.30;94538.00;;;;7397374;19;20165;-74
2023/08/10 01:08:07;;;;;;;5.37;3.63;;;;;11.20;94533.00;;;;7397887;19;20608;-74
2023/08/10 01:11:00;;;;;;;4.65;3.70;;;;;11.40;94532.00;;;;7400444;19;20160;-76
2023/08/10 01:13:46;;;;;;;8.02;3.80;;;;;11.20;94534.00;;;;7399854;19;20152;-76
2023/08/10 01:16:16;;;;;;;5.00;3.60;;;;;11.10;94535.00;;;;7402072;19;20163;-74
2023/08/10 01:18:51;;;;;;;4.27;3.63;;;;;11.00;94537.00;;;;7400545;19;20132;-73
2023/08/10 01:21:46;;;;;;;5.20;4.57;;;;;11.10;94535.00;;;;7399874;19;20141;-75
2023/08/10 01:24:30;;;;;;;7.70;3.77;;;;;11.00;94539.00;;;;7400662;19;20184;-75
2023/08/10 01:26:57;;;;;;;4.10;3.70;;;;;10.90;94536.00;;;;7401781;19;20145;-75
2023/08/10 01:29:32;;;;;;;5.00;3.47;;;;;11.10;94535.00;;;;7400108;19;20143;-73
2023/08/10 01:32:01;;;;;;;3.80;3.40;;;;;11.10;94538.00;;;;7400674;19;20136;-74
2023/08/10 01:34:36;;;;;;;6.85;3.65;;;;;11.00;94539.00;;;;7401013;19;20136;-76
2023/08/10 01:37:11;;;;;;;6.22;3.90;;;;;10.90;94534.00;;;;7398704;19;20607;-75
2023/08/10 01:39:38;;;;;;;6.53;3.73;;;;;10.90;94534.00;;;;7400842;19;20129;-76
2023/08/10 01:42:13;;;;;;;5.70;3.80;;;;;10.90;94531.00;;;;7400516;19;20150;-75
2023/08/10 01:44:47;;;;;;;6.53;3.77;;;;;10.90;94534.00;;;;7398844;19;20141;-74
2023/08/10 01:47:23;;;;;;;3.87;3.47;;;;;10.90;94531.00;;;;7398197;19;20196;-74
2023/08/10 01:50:00;;;;;;;4.73;3.37;;;;;10.80;94523.00;;;;7399646;19;20172;-75
2023/08/10 01:52:39;;;;;;;4.17;3.77;;;;;10.90;94529.00;;;;7398803;19;20148;-75
2023/08/10 01:55:15;;;;;;;6.07;3.57;;;;;10.70;94533.00;;;;7398319;19;20157;-76
2023/08/10 01:57:43;;;;;;;3.88;3.22;;;;;10.70;94532.00;;;;7399034;19;20139;-76
2023/08/10 02:00:18;;;;;;;4.50;3.30;;;;;10.70;94527.00;;;;7399574;19;20603;-73
2023/08/10 02:02:46;;;;;;;4.43;3.63;;;;;10.60;94524.00;;;;7394462;19;20252;-76
2023/08/10 02:05:26;;;;;;;4.20;3.50;;;;;10.60;94530.00;;;;7396507;19;20172;-76
2023/08/10 02:07:56;;;;;;;4.30;3.20;;;;;10.70;94529.00;;;;7398666;19;20231;-75
2023/08/10 02:10:30;;;;;;;3.73;3.33;;;;;10.70;94534.00;;;;7398046;19;20658;-75
2023/08/10 02:12:58;;;;;;;5.47;3.23;;;;;10.50;94532.00;;;;7399577;19;20192;-77
2023/08/10 02:15:32;;;;;;;4.30;3.30;;;;;10.40;94536.00;;;;7398354;19;20153;-76
2023/08/10 02:18:00;;;;;;;5.40;3.40;;;;;10.40;94542.00;;;;7394522;19;20172;-77
2023/08/10 02:20:34;;;;;;;4.17;3.33;;;;;10.50;94528.00;;;;7400152;19;20160;-77
2023/08/10 02:23:08;;;;;;;6.87;3.40;;;;;10.50;94536.00;;;;7398153;19;20152;-75
2023/08/10 02:25:45;;;;;;;3.30;3.00;;;;;10.40;94529.00;;;;7397111;19;20141;-74
2023/08/10 02:28:19;;;;;;;6.43;3.30;;;;;10.60;94524.00;;;;7398335;19;20586;-77
2023/08/10 02:30:53;;;;;;;3.53;3.23;;;;;10.90;94527.00;;;;7398134;19;20170;-75
2023/08/10 02:33:21;;;;;;;4.90;3.33;;;;;10.80;94527.00;;;;7397467;19;20144;-76
2023/08/10 02:35:59;;;;;;;3.78;3.20;;;;;10.80;94517.00;;;;7398531;19;20628;-76
2023/08/10 02:38:34;;;;;;;4.43;3.20;;;;;10.70;94512.00;;;;7396550;19;20156;-75
2023/08/10 02:41:08;;;;;;;7.27;3.20;;;;;10.70;94520.00;;;;7397368;19;20614;-77
2023/08/10 02:43:43;;;;;;;5.13;3.08;;;;;10.70;94511.00;;;;7396262;19;20151;-78
2023/08/10 02:46:18;;;;;;;4.65;3.10;;;;;11.00;94505.00;;;;7398773;19;20140;-76
2023/08/10 02:48:53;;;;;;;3.10;2.80;;;;;11.00;94515.00;;;;7397342;19;20148;-75
2023/08/10 02:51:28;;;;;;;3.27;2.97;;;;;10.80;94519.00;;;;7396296;19;20596;-78
2023/08/10 02:53:56;;;;;;;4.87;3.37;;;;;10.80;94518.00;;;;7398329;19;20141;-76
2023/08/10 02:56:31;;;;;;;3.47;2.90;;;;;10.80;94513.00;;;;7395940;19;20152;-76
2023/08/10 02:59:01;;;;;;;3.83;3.30;;;;;10.90;94513.00;;;;7396949;19;20137;-78
2023/08/10 03:01:31;;;;;;;3.70;3.17;;;;;11.10;94520.00;;;;7396957;19;20172;-76
2023/08/10 03:04:05;;;;;;;4.35;3.60;;;;;11.10;94520.00;;;;7396159;19;20581;-75
2023/08/10 03:06:45;;;;;;;3.22;2.92;;;;;11.20;94519.00;;;;7397357;19;20643;-78
2023/08/10 03:09:20;;;;;;;4.15;3.60;;;;;11.30;94514.00;;;;7396479;19;20148;-77
2023/08/10 03:11:56;;;;;;;4.60;3.53;;;;;11.40;94525.00;;;;7395936;19;20136;-78
2023/08/10 03:14:30;;;;;;;5.93;3.70;;;;;11.50;94522.00;;;;7397060;19;20648;-77
2023/08/10 03:17:04;;;;;;;5.80;3.35;;;;;11.70;94516.00;;;;7393823;19;20165;-75
2023/08/10 03:19:39;;;;;;;4.78;3.67;;;;;11.80;94515.00;;;;7394663;19;20148;-76
2023/08/10 03:22:14;;;;;;;5.55;3.00;;;;;11.60;94519.00;;;;7395180;19;20148;-76
2023/08/10 03:24:48;;;;;;;3.42;3.13;;;;;11.60;94523.00;;;;7396453;19;20591;-76
2023/08/10 03:27:16;;;;;;;5.93;3.55;;;;;11.60;94529.00;;;;7395678;19;20149;-76
2023/08/10 03:29:51;;;;;;;3.75;2.88;;;;;11.40;94525.00;;;;7391834;19;20147;-76
2023/08/10 03:32:25;;;;;;;5.93;3.35;;;;;11.40;94519.00;;;;7393027;19;20144;-77
2023/08/10 03:34:59;;;;;;;3.05;2.75;;;;;11.30;94520.00;;;;7395605;19;20141;-76
2023/08/10 03:37:34;;;;;;;3.58;3.15;;;;;11.30;94528.00;;;;7395469;19;20145;-76
2023/08/10 03:40:11;;;;;;;4.53;3.20;;;;;11.60;94517.00;;;;7395284;19;20208;-77
2023/08/10 03:42:45;;;;;;;6.07;3.60;;;;;11.50;94524.00;;;;7396808;19;20620;-81
2023/08/10 03:45:19;;;;;;;3.92;3.38;;;;;11.70;94530.00;;;;7394453;19;20633;-78
2023/08/10 03:47:47;;;;;;;3.70;3.30;;;;;11.70;94517.00;;;;7394835;19;20491;-74
2023/08/10 03:50:16;;;;;;;4.28;3.42;;;;;11.70;94517.00;;;;7395776;19;20153;-76
2023/08/10 03:52:50;;;;;;;4.70;2.58;;;;;11.50;94522.00;;;;7394734;19;20602;-75
2023/08/10 03:55:19;;;;;;;4.15;3.35;;;;;11.60;94524.00;;;;7395195;19;20155;-76
2023/08/10 03:57:53;;;;;;;6.82;3.08;;;;;11.50;94523.00;;;;7394056;19;20618;-77
2023/08/10 04:00:21;;;;;;;3.83;2.80;;;;;11.20;94522.00;;;;7394142;19;20154;-77
2023/08/10 04:02:56;;;;;;;3.88;2.65;;;;;11.20;94532.00;;;;7395971;19;20624;-77
2023/08/10 04:05:31;;;;;;;6.25;3.35;;;;;11.10;94516.00;;;;7393721;19;20220;-77
2023/08/10 04:08:10;;;;;;;3.67;2.80;;;;;11.20;94519.00;;;;7393441;19;20594;-77
2023/08/10 04:10:38;;;;;;;3.47;3.03;;;;;11.30;94521.00;;;;7394245;19;20161;-74
2023/08/10 04:13:14;;;;;;;3.97;3.30;;;;;11.20;94522.00;;;;7393071;19;20175;-75
2023/08/10 04:15:42;;;;;;;4.97;3.45;;;;;11.20;94525.00;;;;7392857;19;20245;-77
2023/08/10 04:18:16;;;;;;;5.15;3.20;;;;;11.20;94527.00;;;;7395333;19;20132;-75
2023/08/10 04:20:44;;;;;;;3.25;2.92;;;;;11.30;94544.00;;;;7394643;19;20212;-77
2023/08/10 04:23:19;;;;;;;5.47;3.05;;;;;11.40;94544.00;;;;7393431;19;20128;-76
2023/08/10 04:25:47;;;;;;;3.47;3.17;;;;;11.50;94544.00;;;;7395527;19;20563;-77
2023/08/10 04:28:15;;;;;;;3.53;3.17;;;;;11.50;94547.00;;;;7394627;19;20133;-76
2023/08/10 04:30:51;;;;;;;3.50;3.00;;;;;11.50;94545.00;;;;7394287;19;20149;-76
2023/08/10 04:33:19;;;;;;;3.95;3.20;;;;;11.50;94547.00;;;;7393964;19;20595;-75
2023/08/10 04:35:53;;;;;;;4.50;3.17;;;;;11.60;94545.00;;;;7393059;19;20175;-75
2023/08/10 04:38:28;;;;;;;3.17;2.88;;;;;12.00;94540.00;;;;7392690;19;20133;-74
2023/08/10 04:41:02;;;;;;;5.20;2.97;;;;;12.10;94535.00;;;;7394037;19;20161;-74
2023/08/10 04:43:30;;;;;;;4.88;3.03;;;;;12.20;94535.00;;;;7394482;19;20561;-74
2023/08/10 04:46:06;;;;;;;5.57;3.05;;;;;12.20;94526.00;;;;7395062;19;20121;-75
2023/08/10 04:48:34;;;;;;;3.85;2.50;;;;;12.10;94532.00;;;;7392344;19;20228;-77
2023/08/10 04:51:11;;;;;;;5.65;2.97;;;;;12.20;94538.00;;;;7391307;19;20141;-75
2023/08/10 04:53:45;;;;;;;3.90;2.35;;;;;12.20;94542.00;;;;7393438;19;20176;-75
2023/08/10 04:56:13;;;;;;;3.42;3.13;;;;;12.30;94540.00;;;;7393096;19;20141;-75
2023/08/10 04:58:48;;;;;;;3.80;2.70;;;;;12.40;94542.00;;;;7392799;19;20140;-74
2023/08/10 05:01:16;;;;;;;5.03;3.05;;;;;12.60;94539.00;;;;7393135;19;20173;-76
2023/08/10 05:03:56;;;;;;;4.43;3.10;;;;;12.60;94531.00;;;;7391112;19;20172;-75
2023/08/10 05:06:34;;;;;;;3.30;2.53;;;;;12.80;94534.00;;;;7392768;19;20156;-76
2023/08/10 05:09:09;;;;;;;4.50;3.00;;;;;12.90;94534.00;;;;7399750;19;20548;-76
2023/08/10 05:11:38;;;;;;;2.50;2.30;;;;;13.00;94534.00;;;;7400364;19;20603;-77
2023/08/10 05:14:13;;;;;;;8.98;3.05;;;;;13.20;94535.00;;;;7390076;19;20171;-77
2023/08/10 05:16:47;;;;;;;2.85;2.47;;;;;13.30;94534.00;;;;7383557;19;20491;-75
2023/08/10 05:19:15;;;;;;;4.07;2.60;;;;;13.40;94535.00;;;;7386959;19;20257;-75
2023/08/10 05:21:50;;;;;;;4.32;2.58;;;;;13.70;94545.00;;;;7386476;19;20164;-77
2023/08/10 05:24:24;;;;;;;4.28;2.78;;;;;14.00;94527.00;;;;7387178;19;20129;-77
2023/08/10 05:27:02;;;;;;;5.13;2.67;;;;;14.20;94539.00;;;;7386775;19;20169;-77
2023/08/10 05:29:37;;;;;;;3.40;2.50;;;;;14.40;94553.00;;;;7387272;19;20256;-76
2023/08/10 05:32:05;;;;;;;3.97;2.80;;;;;14.50;94542.00;;;;7388344;19;20180;-74
2023/08/10 05:34:41;;;;;;;4.50;2.33;;;;;14.80;94551.00;;;;7391587;19;20135;-75
2023/08/10 05:37:11;;;;;;;3.45;2.50;;;;;15.10;94541.00;;;;7388367;19;20180;-75
2023/08/10 05:39:46;;;;;;;2.58;2.33;;;;;15.40;94549.00;;;;7392021;19;20921;-73
2023/08/10 05:42:15;;;;;;;3.58;2.40;;;;;15.50;94549.00;;;;7393526;19;20172;-73
2023/08/10 05:44:49;;;;;;;2.80;2.10;;;;;15.50;94547.00;;;;7389716;19;20491;-73
2023/08/10 05:47:18;;;;;;;2.35;2.15;;;;;15.50;94558.00;;;;7390815;19;20149;-75
2023/08/10 05:49:52;;;;;;;2.42;2.22;;;;;15.50;94565.00;;;;7389987;19;20152;-74
2023/08/10 05:52:20;;;;;;;3.40;2.00;;;;;15.50;94565.00;;;;7387325;19;20136;-77
2023/08/10 05:54:49;;;;;;;2.78;2.10;;;;;15.60;94569.00;;;;7389658;19;20144;-74
2023/08/10 05:57:23;;;;;;;2.83;2.17;;;;;15.60;94564.00;;;;7389892;19;20140;-74
2023/08/10 06:00:01;;;;;;;2.40;2.10;;;;;15.70;94582.00;;;;7389200;19;20145;-73
2023/08/10 06:02:35;;;;;;;2.55;2.13;;;;;15.80;94579.00;;;;7387063;19;20501;-74
2023/08/10 06:05:10;;;;;;;2.30;2.10;;;;;15.90;94563.00;;;;7388209;19;20640;-73
2023/08/10 06:07:47;;;;;;;2.58;2.35;;;;;15.80;94565.00;;;;7386697;19;20137;-75
2023/08/10 06:10:21;;;;;;;8.30;6.20;;;;;15.90;94565.00;;;;7386144;19;20164;-75
2023/08/10 06:12:49;;;;;;;4.38;2.50;;;;;15.80;94570.00;;;;7389428;19;20509;-75
2023/08/10 06:15:24;;;;;;;2.30;2.10;;;;;15.70;94572.00;;;;7387056;19;20619;-74
2023/08/10 06:17:52;;;;;;;3.33;2.10;;;;;15.60;94576.00;;;;7390968;19;20132;-75
2023/08/10 06:20:26;;;;;;;2.38;2.17;;;;;15.70;94581.00;;;;7388459;19;20139;-74
2023/08/10 06:22:55;;;;;;;3.30;2.25;;;;;15.70;94584.00;;;;7388227;19;20254;-74
2023/08/10 06:25:30;;;;;;;3.13;2.38;;;;;15.90;94587.00;;;;7389641;19;20133;-74
2023/08/10 06:28:06;;;;;;;4.32;2.15;;;;;16.20;94589.00;;;;7388823;19;20140;-74
2023/08/10 06:30:35;;;;;;;3.83;2.03;;;;;16.30;94589.00;;;;7390130;19;20166;-73
2023/08/10 06:33:11;;;;;;;3.78;2.10;;;;;16.30;94600.00;;;;7388935;19;20167;-74
2023/08/10 06:35:40;;;;;;;2.25;2.05;;;;;16.20;94607.00;;;;7389125;19;20588;-73
2023/08/10 06:38:14;;;;;;;2.20;2.00;;;;;16.20;94620.00;;;;7388268;19;20606;-72
2023/08/10 06:40:42;;;;;;;3.00;2.17;;;;;16.20;94616.00;;;;7388890;19;20180;-74
2023/08/10 06:43:16;;;;;;;3.75;1.90;;;;;16.20;94608.00;;;;7388608;19;20149;-74
2023/08/10 06:45:44;;;;;;;2.30;2.10;;;;;16.20;94608.00;;;;7391012;19;20173;-78
2023/08/10 06:48:35;;;;;;;3.13;2.30;;;;;16.50;94606.00;;;;7387506;19;20169;-76
2023/08/10 06:51:15;;;;;;;2.70;2.20;;;;;16.50;94603.00;;;;7389912;19;20152;-76
2023/08/10 06:53:50;;;;;;;2.53;2.33;;;;;16.60;94598.00;;;;7388819;19;20153;-76
2023/08/10 06:56:25;;;;;;;2.80;2.28;;;;;17.00;94596.00;;;;7389360;19;20557;-75
2023/08/10 06:58:53;;;;;;;3.20;2.03;;;;;17.40;94600.00;;;;7390319;19;20129;-76
2023/08/10 07:01:30;;;;;;;2.33;2.10;;;;;17.80;94595.00;;;;7390450;19;20163;-75
2023/08/10 07:04:11;;;;;;;3.92;2.00;;;;;18.00;94598.00;;;;7385431;19;20249;-76
2023/08/10 07:06:46;;;;;;;2.60;2.20;;;;;18.00;94605.00;;;;7388025;19;20149;-76
2023/08/10 07:09:14;;;;;;;2.55;2.35;;;;;18.20;94600.00;;;;7390634;19;20132;-76
2023/08/10 07:11:43;;;;;;;2.60;2.00;;;;;18.10;94594.00;;;;7391398;19;20615;-74
2023/08/10 07:14:19;;;;;;;3.03;2.40;;;;;18.30;94601.00;;;;7392852;19;20152;-77
2023/08/10 07:16:47;;;;;;;3.17;1.88;;;;;18.50;94601.00;;;;7390309;19;20497;-76
2023/08/10 07:19:22;;;;;;;3.72;2.10;;;;;18.80;94607.00;;;;7389333;19;20148;-77
2023/08/10 07:21:55;;;;;;;2.30;2.00;;;;;18.50;94611.00;;;;7389658;19;20188;-76
2023/08/10 07:24:29;;;;;;;2.88;2.25;;;;;18.90;94609.00;;;;7389178;19;20155;-76
2023/08/10 07:26:57;;;;;;;3.05;2.17;;;;;18.80;94612.00;;;;7388192;19;20144;-74
2023/08/10 07:29:36;;;;;;;5.43;2.20;;;;;19.00;94603.00;;;;7391421;19;20148;-78
2023/08/10 07:32:07;;;;;;;2.22;1.92;;;;;18.90;94600.00;;;;7389466;19;20588;-75
2023/08/10 07:34:41;;;;;;;3.28;1.95;;;;;19.10;94606.00;;;;7387962;19;20144;-75
2023/08/10 07:37:16;;;;;;;3.60;1.92;;;;;19.20;94602.00;;;;7391567;19;20599;-76
2023/08/10 07:39:47;;;;;;;2.72;2.00;;;;;19.10;94606.00;;;;7388698;19;20178;-76
2023/08/10 07:42:22;;;;;;;2.58;2.03;;;;;19.00;94611.00;;;;7387354;19;20184;-76
2023/08/10 07:44:56;;;;;;;5.03;2.00;;;;;19.20;94608.00;;;;7387989;19;20155;-75
2023/08/10 07:47:32;;;;;;;6.40;2.17;;;;;19.20;94608.00;;;;7383633;19;20155;-75
2023/08/10 07:50:06;;;;;;;3.25;2.20;;;;;19.10;94612.00;;;;7387793;19;20144;-75
2023/08/10 07:52:34;;;;;;;2.05;1.85;;;;;19.10;94618.00;;;;7389848;19;20192;-75
2023/08/10 07:55:11;;;;;;;2.47;1.90;;;;;19.00;94610.00;;;;7389907;19;20473;-75
2023/08/10 07:57:40;;;;;;;3.13;2.05;;;;;19.00;94605.00;;;;7386301;19;20220;-76
2023/08/10 08:00:10;;;;;;;5.25;2.20;;;;;19.30;94606.00;;;;7388350;19;20240;-72
2023/08/10 08:02:44;;;;;;;3.00;1.95;;;;;19.40;94601.00;;;;7385775;19;20180;-73
2023/08/10 08:05:26;;;;;;;2.97;2.20;;;;;19.80;94607.00;;;;7384889;19;20180;-72
2023/08/10 08:08:03;;;;;;;2.20;2.00;;;;;20.00;94606.00;;;;7384191;19;20151;-73
2023/08/10 08:10:40;;;;;;;2.88;1.85;;;;;20.00;94608.00;;;;7383495;19;20135;-74
2023/08/10 08:13:14;;;;;;;2.80;2.15;;;;;20.30;94616.00;;;;7381309;19;20128;-73
2023/08/10 08:15:43;;;;;;;2.15;1.75;;;;;20.50;94599.00;;;;7381608;19;20129;-74
2023/08/10 08:18:41;;;;;;;3.58;2.00;;;;;20.80;94604.00;;;;7385042;19;20608;-76
2023/08/10 08:21:21;;;;;;;3.58;2.30;;;;;20.30;94607.00;;;;7386174;19;20475;-73
2023/08/10 08:23:58;;;;;;;3.05;2.03;;;;;20.70;94609.00;;;;7386878;19;20495;-73
2023/08/10 08:26:33;;;;;;;2.78;2.28;;;;;20.60;94603.00;;;;7383076;19;20148;-73
2023/08/10 08:29:07;;;;;;;14.18;2.45;;;;;20.90;94603.00;;;;7384048;19;20173;-74
2023/08/10 08:31:43;;;;;;;2.75;2.17;;;;;21.20;94608.00;;;;7385865;19;20192;-74
2023/08/10 08:34:20;;;;;;;4.00;2.22;;;;;21.40;94609.00;;;;7384956;19;20144;-74
2023/08/10 08:36:55;;;;;;;3.75;2.25;;;;;21.20;94600.00;;;;7384199;19;20133;-75
2023/08/10 08:39:23;;;;;;;3.17;2.50;;;;;21.10;94607.00;;;;7380873;19;20133;-73
2023/08/10 08:41:52;;;;;;;4.18;2.35;;;;;21.30;94603.00;;;;7384870;19;20165;-77
2023/08/10 08:44:26;;;;;;;3.00;2.17;;;;;20.80;94599.00;;;;7390441;19;20141;-73
2023/08/10 08:47:03;;;;;;;3.13;2.20;;;;;20.70;94617.00;;;;7389202;19;20471;-74
2023/08/10 08:49:38;;;;;;;2.45;1.90;;;;;20.30;94590.00;;;;7390346;19;20607;-75
2023/08/10 08:52:06;;;;;;;3.10;2.33;;;;;21.20;94595.00;;;;7390700;19;20160;-75
2023/08/10 08:54:41;;;;;;;2.42;2.17;;;;;21.60;94593.00;;;;7389418;19;20155;-74
2023/08/10 08:57:09;;;;;;;4.05;2.17;;;;;21.30;94591.00;;;;7387277;19;20138;-74
2023/08/10 08:59:43;;;;;;;2.50;2.05;;;;;21.80;94589.00;;;;7390673;19;20148;-74
2023/08/10 09:02:17;;;;;;;3.40;2.42;;;;;22.30;94592.00;;;;7390489;19;20172;-75
2023/08/10 09:05:06;;;;;;;2.38;2.17;;;;;22.00;94598.00;;;;7389911;19;20156;-76
2023/08/10 09:07:41;;;;;;;2.45;2.08;;;;;22.20;94592.00;;;;7388489;19;20140;-76
2023/08/10 09:10:17;;;;;;;2.97;2.17;;;;;22.90;94595.00;;;;7389469;19;20172;-75
2023/08/10 09:12:49;;;;;;;2.95;2.00;;;;;23.20;94592.00;;;;7389867;19;20569;-75
2023/08/10 09:15:27;;;;;;;4.65;1.92;;;;;23.10;94581.00;;;;7388850;19;20156;-75
2023/08/10 09:17:56;;;;;;;2.05;1.70;;;;;22.60;94580.00;;;;7391916;19;20129;-73
2023/08/10 09:20:30;;;;;;;2.08;1.88;;;;;22.60;94579.00;;;;7388728;19;22051;-74
2023/08/10 09:23:00;;;;;;;3.15;2.10;;;;;22.20;94570.00;;;;7390543;19;20135;-76
2023/08/10 09:25:38;;;;;;;1.75;1.65;;;;;21.90;94581.00;;;;7389001;19;20173;-75
2023/08/10 09:28:12;;;;;;;2.35;1.70;;;;;22.40;94577.00;;;;7389712;19;20211;-73
2023/08/10 09:30:41;;;;;;;3.30;2.38;;;;;22.30;94584.00;;;;7388943;19;20644;-74
2023/08/10 09:33:32;;;;;;;2.17;1.98;;;;;22.60;94570.00;;;;7388716;19;20132;-77
2023/08/10 09:36:04;;;;;;;3.20;1.65;;;;;22.80;94567.00;;;;7388153;19;20125;-75
2023/08/10 09:38:50;;;;;;;2.05;1.85;;;;;23.30;94575.00;;;;7390338;19;20539;-75
2023/08/10 09:41:20;;;;;;;2.60;2.10;;;;;23.40;94570.00;;;;7388785;19;20148;-75
2023/08/10 09:43:54;;;;;;;2.38;2.17;;;;;23.70;94557.00;;;;7388859;19;20152;-77
2023/08/10 09:46:31;;;;;;;2.15;1.95;;;;;23.80;94561.00;;;;7390410;19;20172;-75
2023/08/10 09:49:05;;;;;;;2.45;2.00;;;;;24.00;94563.00;;;;7389271;19;20219;-73
2023/08/10 09:51:43;;;;;;;3.17;2.28;;;;;24.20;94565.00;;;;7388305;19;20551;-76
2023/08/10 09:54:20;;;;;;;2.30;2.10;;;;;24.50;94557.00;;;;7388832;19;20552;-75
2023/08/10 09:56:57;;;;;;;2.55;1.95;;;;;24.50;94558.00;;;;7389362;19;20129;-80
2023/08/10 09:59:31;;;;;;;2.55;1.95;;;;;24.80;94566.00;;;;7388213;19;20549;-75
2023/08/10 10:01:59;;;;;;;3.28;2.10;;;;;25.20;94562.00;;;;7387039;19;20160;-76
2023/08/10 10:04:48;;;;;;;2.38;1.80;;;;;25.40;94562.00;;;;7386148;19;20148;-78
2023/08/10 10:07:27;;;;;;;2.42;1.95;;;;;25.50;94550.00;;;;7389559;19;20486;-76
2023/08/10 10:10:01;;;;;;;2.28;1.95;;;;;25.50;94554.00;;;;7388038;19;20133;-76
2023/08/10 10:12:36;;;;;;;2.42;2.03;;;;;25.60;94544.00;;;;7387714;19;20498;-78
2023/08/10 10:15:11;;;;;;;2.08;1.88;;;;;25.60;94556.00;;;;7388796;19;20132;-75
2023/08/10 10:17:51;;;;;;;3.00;2.00;;;;;24.90;94582.00;;;;7385557;19;20525;-76
2023/08/10 10:20:28;;;;;;;1.98;1.88;;;;;23.80;94554.00;;;;7385653;19;20655;-76
2023/08/10 10:22:55;;;;;;;2.70;2.20;;;;;23.70;94554.00;;;;7387593;19;20591;-77
2023/08/10 10:25:31;;;;;;;4.63;2.92;;;;;24.70;94557.00;;;;7389051;19;20193;-75
2023/08/10 10:28:14;;;;;;;2.45;2.08;;;;;25.20;94550.00;;;;7385808;19;20132;-77
2023/08/10 10:30:56;;;;;;;2.45;2.10;;;;;25.10;94571.00;;;;7382790;19;20148;-77
2023/08/10 10:33:32;;;;;;;2.13;1.92;;;;;24.60;94550.00;;;;7388100;19;20465;-76
2023/08/10 10:36:18;;;;;;;1.95;1.77;;;;;24.50;94539.00;;;;7387950;19;20624;-78
2023/08/10 10:39:04;;;;;;;5.43;2.10;;;;;25.40;94539.00;;;;7387640;19;20161;-74
2023/08/10 10:41:42;;;;;;;3.42;1.95;;;;;26.00;94537.00;;;;7386333;19;20200;-73
2023/08/10 10:44:20;;;;;;;2.38;2.03;;;;;26.20;94536.00;;;;7387692;19;20133;-76
2023/08/10 10:46:54;;;;;;;4.45;2.25;;;;;26.00;94529.00;;;;7388121;19;20615;-75
2023/08/10 10:49:21;;;;;;;2.58;2.10;;;;;26.00;94529.00;;;;7387604;19;20133;-76
2023/08/10 10:52:02;;;;;;;2.10;1.90;;;;;26.20;94523.00;;;;7387829;19;20595;-74
2023/08/10 10:54:36;;;;;;;2.20;2.00;;;;;26.50;94523.00;;;;7386621;19;20124;-76
2023/08/10 10:57:13;;;;;;;2.80;2.00;;;;;27.10;94555.00;;;;7386077;19;20156;-75
2023/08/10 10:59:52;;;;;;;2.70;2.00;;;;;25.30;94549.00;;;;7385654;19;20160;-76
2023/08/10 11:02:20;;;;;;;2.50;1.92;;;;;24.30;94521.00;;;;7388912;19;20152;-78
2023/08/10 11:05:01;;;;;;;2.45;2.10;;;;;24.80;94544.00;;;;7385438;19;20164;-79
2023/08/10 11:07:50;;;;;;;4.20;2.17;;;;;24.10;94525.00;;;;7386715;19;20159;-77
2023/08/10 11:10:22;;;;;;;2.53;2.30;;;;;25.00;94524.00;;;;7385575;19;20205;-75
2023/08/10 11:12:57;;;;;;;3.25;1.98;;;;;25.70;94506.00;;;;7388122;19;20587;-77
2023/08/10 11:15:33;;;;;;;3.13;2.22;;;;;25.50;94520.00;;;;7386735;19;20211;-76
2023/08/10 11:18:03;;;;;;;2.33;2.10;;;;;25.90;94519.00;;;;7385709;19;20133;-77
2023/08/10 11:20:48;;;;;;;3.28;2.05;;;;;26.40;94520.00;;;;7385958;19;20942;-78
2023/08/10 11:23:17;;;;;;;2.63;2.10;;;;;26.60;94516.00;;;;7387974;19;20164;-80
2023/08/10 11:25:52;;;;;;;3.13;2.22;;;;;26.80;94511.00;;;;7386673;19;20148;-80
2023/08/10 11:28:21;;;;;;;2.63;1.95;;;;;27.30;94509.00;;;;7386777;19;20165;-77
2023/08/10 11:31:01;;;;;;;3.10;2.28;;;;;27.60;94504.00;;;;7385626;19;20569;-79
2023/08/10 11:33:31;;;;;;;2.55;1.88;;;;;27.50;94512.00;;;;7387118;19;20144;-78
2023/08/10 11:36:05;;;;;;;2.20;2.00;;;;;27.60;94516.00;;;;7386308;19;20156;-78
2023/08/10 11:38:45;;;;;;;2.50;2.05;;;;;28.40;94508.00;;;;7385569;19;20160;-77
2023/08/10 11:41:20;;;;;;;3.20;1.90;;;;;28.20;94514.00;;;;7386725;19;20148;-79
2023/08/10 11:43:54;;;;;;;2.28;2.08;;;;;28.20;94509.00;;;;7385571;19;20145;-79
2023/08/10 11:46:29;;;;;;;3.28;2.70;;;;;28.00;94517.00;;;;7384396;19;20148;-77
2023/08/10 11:49:04;;;;;;;2.13;1.90;;;;;28.40;94517.00;;;;7385983;19;20128;-78
2023/08/10 11:51:33;;;;;;;3.72;2.70;;;;;28.80;94524.00;;;;7385643;19;20148;-79
2023/08/10 11:54:10;;;;;;;3.20;2.10;;;;;28.60;94516.00;;;;7385652;19;20163;-79
2023/08/10 11:56:45;;;;;;;2.20;1.90;;;;;28.30;94518.00;;;;7384970;19;20128;-78
2023/08/10 11:59:15;;;;;;;2.65;2.20;;;;;28.10;94512.00;;;;7386073;19;20208;-77
2023/08/10 12:01:54;;;;;;;4.22;2.20;;;;;28.50;94516.00;;;;7383828;19;20173;-78
2023/08/10 12:04:28;;;;;;;2.70;2.03;;;;;28.40;94520.00;;;;7386336;19;20156;-78
2023/08/10 12:07:27;;;;;;;3.05;2.40;;;;;28.50;94517.00;;;;7386367;19;20485;-80
2023/08/10 12:09:58;;;;;;;2.20;2.00;;;;;28.70;94522.00;;;;7386035;19;20176;-79
2023/08/10 12:12:32;;;;;;;2.20;1.98;;;;;28.60;94525.00;;;;7386209;19;20136;-78
2023/08/10 12:15:15;;;;;;;2.30;2.10;;;;;29.40;94528.00;;;;7384981;19;20128;-79
2023/08/10 12:17:52;;;;;;;2.40;2.20;;;;;29.40;94517.00;;;;7381146;19;20129;-78
2023/08/10 12:20:20;;;;;;;2.78;2.28;;;;;29.90;94524.00;;;;7386657;19;20136;-78
2023/08/10 12:22:54;;;;;;;2.20;2.00;;;;;29.70;94527.00;;;;7385385;19;20145;-79
2023/08/10 12:25:28;;;;;;;2.92;2.50;;;;;29.90;94529.00;;;;7383716;19;20579;-78
2023/08/10 12:28:05;;;;;;;2.60;2.38;;;;;30.00;94539.00;;;;7383706;19;20627;-80
2023/08/10 12:30:33;;;;;;;2.67;1.98;;;;;30.20;94523.00;;;;7383651;19;20156;-80
2023/08/10 12:33:09;;;;;;;2.15;1.95;;;;;30.40;94532.00;;;;7383687;19;20764;-81
2023/08/10 12:35:38;;;;;;;2.35;2.13;;;;;30.40;94520.00;;;;7383441;19;20208;-80
2023/08/10 12:38:12;;;;;;;2.50;2.30;;;;;30.30;94523.00;;;;7383840;19;20158;-79
2023/08/10 12:40:46;;;;;;;3.72;2.17;;;;;30.30;94533.00;;;;7382624;19;20133;-75
2023/08/10 12:43:21;;;;;;;3.60;2.08;;;;;29.90;94528.00;;;;7383322;19;20132;-78
2023/08/10 12:45:49;;;;;;;2.50;2.30;;;;;30.30;94542.00;;;;7383369;19;20514;-77
2023/08/10 12:48:22;;;;;;;2.63;2.13;;;;;29.90;94535.00;;;;7382735;19;20552;-77
2023/08/10 12:50:52;;;;;;;3.97;2.35;;;;;30.00;94538.00;;;;7384243;19;20123;-78
2023/08/10 12:53:20;;;;;;;2.50;2.30;;;;;29.90;94538.00;;;;7382645;19;20133;-77